.
WxDataArchive / Data Records for 2011-05-20
2011-05-19 May 2011 2011-05-21

Data Records for Friday, 20 May 2011

Time	Temp	Chill	HIndex	Humid	Dewpt	 Wind 	HiWind	WindDir	Rain 	Barom 
-----	----	-----	------	-----	-----	------	------	-------	-----	----- 
00:00	59.2	59.2	59.2	92	56.9	0	0	---	0.00	30.020 
00:05	58.9	58.9	58.9	92	56.6	0	0	---	0.00	30.020 
00:10	58.7	58.7	58.7	92	56.4	0	0	---	0.00	30.020 
00:15	58.6	58.6	58.6	92	56.3	0	0	---	0.00	30.017 
00:20	58.3	58.3	58.3	92	56.0	0	0	---	0.00	30.017 
00:25	58.1	58.1	58.1	92	55.8	0	0	---	0.00	30.017 
00:30	58.0	58.0	58.0	93	56.0	0	0	---	0.00	30.023 
00:35	58.0	58.0	58.0	93	56.0	0	0	---	0.00	30.023 
00:40	57.8	57.8	57.8	93	55.8	0	0	---	0.00	30.023 
00:45	57.6	57.6	57.6	93	55.6	0	1	292	0.00	30.028 
00:50	57.5	57.5	57.5	93	55.5	0	0	---	0.01	30.028 
00:55	57.5	57.5	57.5	93	55.5	0	0	---	0.00	30.028 
01:00	57.2	57.2	57.2	93	55.2	0	0	---	0.00	30.034 
01:05	57.0	57.0	57.0	93	55.0	0	0	---	0.00	30.034 
01:10	56.9	56.9	56.9	93	54.9	0	0	---	0.00	30.034 
01:15	56.7	56.7	56.7	93	54.7	0	0	---	0.00	30.035 
01:20	56.6	56.6	56.6	93	54.6	0	0	---	0.00	30.035 
01:25	56.6	56.6	56.6	93	54.6	0	0	---	0.00	30.035 
01:30	56.5	56.5	56.5	93	54.5	0	0	---	0.00	30.032 
01:35	56.3	56.3	56.3	93	54.3	0	0	---	0.00	30.032 
01:40	56.0	56.0	56.0	93	54.0	0	0	---	0.00	30.032 
01:45	55.9	55.9	55.9	93	53.9	0	0	---	0.00	30.030 
01:50	55.6	55.6	55.6	93	53.6	0	0	---	0.00	30.030 
01:55	55.4	55.4	55.4	94	53.7	0	0	---	0.00	30.030 
02:00	55.6	55.6	55.6	94	53.9	0	0	---	0.00	30.032 
02:05	55.7	55.7	55.7	94	54.0	0	0	---	0.00	30.032 
02:10	55.7	55.7	55.7	94	54.0	0	0	---	0.00	30.032 
02:15	55.9	55.9	55.9	94	54.2	0	1	292	0.00	30.033 
02:20	55.7	55.7	55.7	94	54.0	0	0	---	0.00	30.033 
02:25	55.7	55.7	55.7	94	54.0	0	0	---	0.00	30.033 
02:30	55.6	55.6	55.6	94	53.9	0	0	---	0.00	30.034 
02:35	55.6	55.6	55.6	94	53.9	0	0	---	0.00	30.034 
02:40	55.6	55.6	55.6	94	53.9	0	0	---	0.00	30.034 
02:45	55.4	55.4	55.4	94	53.7	0	0	---	0.00	30.037 
02:50	55.3	55.3	55.3	94	53.6	0	0	---	0.00	30.037 
02:55	55.3	55.3	55.3	95	53.9	0	0	---	0.00	30.037 
03:00	55.1	55.1	55.1	95	53.7	0	0	---	0.00	30.040 
03:05	55.1	55.1	55.1	95	53.7	0	0	---	0.00	30.040 
03:10	54.8	54.8	54.8	94	53.1	0	0	---	0.00	30.040 
03:15	54.5	54.5	54.5	94	52.8	0	0	---	0.00	30.033 
03:20	54.2	54.2	54.2	94	52.5	0	0	---	0.00	30.033 
03:25	54.1	54.1	54.1	95	52.7	0	0	---	0.00	30.033 
03:30	53.9	53.9	53.9	95	52.5	0	0	---	0.00	30.031 
03:35	53.8	53.8	53.8	95	52.4	0	0	---	0.00	30.031 
03:40	53.6	53.6	53.6	95	52.2	0	0	---	0.00	30.031 
03:45	53.6	53.6	53.6	95	52.2	0	0	---	0.00	30.033 
03:50	53.5	53.5	53.5	95	52.1	0	0	---	0.00	30.033 
03:55	53.3	53.3	53.3	95	51.9	0	0	---	0.00	30.033 
04:00	53.1	53.1	53.1	95	51.7	0	0	---	0.00	30.034 
04:05	52.9	52.9	52.9	95	51.5	0	0	---	0.00	30.034 
04:10	52.6	52.6	52.6	95	51.2	0	0	---	0.00	30.034 
04:15	52.5	52.5	52.5	95	51.1	0	0	---	0.00	30.032 
04:20	52.5	52.5	52.5	95	51.1	0	0	---	0.00	30.032 
04:25	52.5	52.5	52.5	95	51.1	0	0	---	0.00	30.032 
04:30	52.3	52.3	52.3	95	50.9	0	0	---	0.00	30.035 
04:35	52.3	52.3	52.3	95	50.9	0	0	---	0.00	30.035 
04:40	52.2	52.2	52.2	95	50.8	0	0	---	0.00	30.035 
04:45	52.0	52.0	52.0	95	50.6	0	0	---	0.00	30.034 
04:50	51.9	51.9	51.9	95	50.5	0	0	---	0.00	30.034 
04:55	51.7	51.7	51.7	95	50.3	0	0	---	0.00	30.034 
05:00	51.7	51.7	51.7	95	50.3	0	0	---	0.00	30.035 
05:05	51.6	51.6	51.6	95	50.2	0	0	---	0.00	30.035 
05:10	51.4	51.4	51.4	95	50.0	0	0	---	0.00	30.035 
05:15	51.3	51.3	51.3	95	49.9	0	0	---	0.00	30.037 
05:20	51.3	51.3	51.3	95	49.9	0	0	---	0.00	30.037 
05:25	51.1	51.1	51.1	95	49.7	0	0	---	0.00	30.037 
05:30	51.1	51.1	51.1	95	49.7	0	0	---	0.00	30.038 
05:35	51.0	51.0	51.0	95	49.6	0	0	---	0.00	30.038 
05:40	50.8	50.8	50.8	95	49.4	0	0	---	0.00	30.038 
05:45	50.8	50.8	50.8	95	49.4	0	0	---	0.00	30.038 
05:50	50.8	50.8	50.8	96	49.7	0	0	---	0.00	30.038 
05:55	50.8	50.8	50.8	95	49.4	0	0	---	0.00	30.038 
06:00	50.7	50.7	50.7	95	49.3	0	0	---	0.00	30.046 
06:05	51.0	51.0	51.0	96	49.9	0	0	---	0.00	30.046 
06:10	51.3	51.3	51.3	96	50.2	0	0	---	0.00	30.046 
06:15	51.3	51.3	51.3	96	50.2	0	0	---	0.00	30.044 
06:20	51.1	51.1	51.1	96	50.0	0	0	---	0.00	30.044 
06:25	51.0	51.0	51.0	95	49.6	0	0	---	0.00	30.044 
06:30	50.7	50.7	50.7	96	49.6	0	0	---	0.00	30.053 
06:35	50.5	50.5	50.5	96	49.4	0	0	---	0.00	30.053 
06:40	50.4	50.4	50.4	96	49.3	0	0	---	0.00	30.053 
06:45	50.4	50.4	50.4	96	49.3	0	0	---	0.00	30.057 
06:50	50.5	50.5	50.5	96	49.4	0	0	---	0.00	30.057 
06:55	50.7	50.7	50.7	96	49.6	0	0	---	0.00	30.057 
07:00	50.8	50.8	50.8	96	49.7	0	0	---	0.00	30.064 
07:05	51.0	51.0	51.0	96	49.9	0	0	---	0.00	30.064 
07:10	51.3	51.3	51.3	96	50.2	0	0	---	0.00	30.064 
07:15	51.9	51.9	51.9	96	50.8	0	0	---	0.00	30.070 
07:20	52.5	52.5	52.5	96	51.4	0	0	---	0.00	30.070 
07:25	52.9	52.9	52.9	96	51.8	0	0	---	0.00	30.070 
07:30	53.5	53.5	53.5	96	52.4	0	0	---	0.00	30.068 
07:35	53.9	53.9	53.9	96	52.8	0	0	---	0.00	30.068 
07:40	54.4	54.4	54.4	96	53.3	0	2	292	0.00	30.068 
07:45	54.5	54.5	54.5	96	53.4	0	2	292	0.00	30.068 
07:50	54.7	54.7	54.7	96	53.6	0	2	292	0.00	30.068 
07:55	54.7	54.7	54.7	96	53.6	1	3	292	0.00	30.068 
08:00	54.8	54.8	54.8	96	53.7	0	1	292	0.00	30.068 
08:05	54.8	54.8	54.8	96	53.7	0	2	292	0.00	30.068 
08:10	55.0	55.0	55.0	96	53.9	0	1	292	0.00	30.068 
08:15	55.3	55.3	55.3	96	54.2	1	3	292	0.00	30.070 
08:20	55.3	55.3	55.3	96	54.2	1	3	292	0.00	30.070 
08:25	55.1	55.1	55.1	96	54.0	0	2	292	0.00	30.070 
08:30	55.3	55.3	55.3	96	54.2	1	3	292	0.00	30.069 
08:35	55.3	55.3	55.3	96	54.2	2	3	292	0.00	30.069 
08:40	55.1	55.1	55.1	96	54.0	1	3	292	0.00	30.069 
08:45	55.3	55.3	55.3	96	54.2	1	3	292	0.00	30.075 
08:50	55.3	55.3	55.3	96	54.2	1	3	292	0.00	30.075 
08:55	55.7	55.7	55.7	96	54.6	0	2	292	0.00	30.075 
09:00	56.0	56.0	56.0	96	54.9	1	2	292	0.00	30.083 
09:05	56.0	56.0	56.0	96	54.9	1	3	292	0.00	30.083 
09:10	56.3	56.3	56.3	96	55.2	1	2	292	0.00	30.083 
09:15	56.7	56.7	56.7	96	55.6	1	3	292	0.00	30.082 
09:20	57.2	57.2	57.2	96	56.1	1	3	292	0.00	30.082 
09:25	57.3	57.3	57.3	95	55.9	1	2	292	0.00	30.082 
09:30	57.6	57.6	57.6	95	56.2	1	3	292	0.00	30.085 
09:35	58.0	58.0	58.0	95	56.6	1	3	292	0.00	30.085 
09:40	58.1	58.1	58.1	94	56.4	1	3	292	0.00	30.085 
09:45	58.4	58.4	58.4	94	56.7	1	4	292	0.00	30.087 
09:50	58.3	58.3	58.3	93	56.3	1	4	292	0.00	30.087 
09:55	58.3	58.3	58.3	92	56.0	1	3	292	0.00	30.087 
10:00	58.9	58.9	58.9	92	56.6	1	2	292	0.00	30.092 
10:05	59.0	59.0	59.0	91	56.4	1	2	292	0.00	30.092 
10:10	59.5	59.5	59.5	91	56.9	1	3	292	0.00	30.092 
10:15	60.1	60.1	60.1	90	57.2	1	4	292	0.00	30.085 
10:20	60.4	60.4	60.4	88	56.8	1	4	270	0.00	30.085 
10:25	61.0	61.0	61.0	88	57.4	1	2	270	0.00	30.085 
10:30	61.6	61.6	61.6	87	57.7	0	1	292	0.00	30.076 
10:35	62.3	62.3	62.3	86	58.1	0	2	292	0.00	30.076 
10:40	62.6	62.6	62.6	84	57.7	1	2	292	0.00	30.076 
10:45	63.5	63.5	63.5	85	58.9	0	2	315	0.00	30.075 
10:50	63.9	63.9	63.9	82	58.3	1	2	315	0.00	30.075 
10:55	64.0	64.0	64.0	81	58.0	0	2	315	0.00	30.075 
11:00	64.0	64.0	64.0	81	58.0	0	1	315	0.00	30.073 
11:05	64.7	64.7	64.7	81	58.7	0	2	315	0.00	30.073 
11:10	65.2	65.2	65.2	81	59.2	0	3	315	0.00	30.073 
11:15	65.6	65.6	65.6	79	58.9	0	2	112	0.00	30.068 
11:20	66.1	66.1	66.1	80	59.7	0	2	112	0.00	30.068 
11:25	66.4	66.4	66.4	78	59.3	1	3	112	0.00	30.068 
11:30	66.6	66.6	66.6	80	60.2	0	1	112	0.00	30.066 
11:35	67.1	67.1	67.1	77	59.6	0	2	112	0.00	30.066 
11:40	67.4	67.4	67.4	77	59.9	0	2	112	0.00	30.066 
11:45	67.8	67.8	67.8	74	59.2	1	3	112	0.00	30.065 
11:50	67.8	67.8	67.8	75	59.6	0	2	112	0.00	30.065 
11:55	67.6	67.6	67.6	75	59.4	0	3	112	0.00	30.065 
12:00	67.8	67.8	67.8	77	60.3	0	3	112	0.00	30.060 
12:05	68.1	68.1	68.1	77	60.6	0	1	112	0.00	30.060 
12:10	68.6	68.6	68.6	77	61.1	1	4	112	0.00	30.060 
12:15	68.9	68.9	68.9	75	60.6	0	2	112	0.00	30.060 
12:20	69.3	69.3	69.3	73	60.3	0	2	112	0.00	30.060 
12:25	69.4	69.4	69.4	72	60.0	0	0	---	0.00	30.060 
12:30	69.9	69.9	69.9	74	61.2	0	1	338	0.00	30.059 
12:35	70.3	70.3	70.3	72	60.8	0	1	338	0.00	30.059 
12:40	70.8	70.8	70.8	70	60.5	0	2	338	0.00	30.059 
12:45	70.9	70.9	70.9	72	61.4	0	2	338	0.00	30.056 
12:50	70.9	70.9	70.9	71	61.0	0	2	338	0.00	30.056 
12:55	71.1	71.1	71.1	69	60.4	0	2	338	0.00	30.056 
13:00	71.5	71.5	71.5	69	60.8	1	3	90	0.00	30.046 
13:05	71.8	71.8	71.8	69	61.1	1	4	90	0.00	30.046 
13:10	71.6	71.6	71.6	66	59.6	0	2	68	0.00	30.046 
13:15	71.8	71.8	71.8	67	60.2	0	1	68	0.00	30.044 
13:20	72.3	72.3	72.3	66	60.3	0	2	45	0.00	30.044 
13:25	72.5	72.5	72.5	64	59.6	0	2	45	0.00	30.044 
13:30	72.5	72.5	72.5	65	60.0	0	1	45	0.00	30.044 
13:35	72.5	72.5	72.5	62	58.7	1	4	270	0.00	30.044 
13:40	73.0	73.0	73.0	63	59.6	0	2	202	0.00	30.044 
13:45	73.3	73.3	73.3	63	59.9	1	3	202	0.00	30.042 
13:50	73.7	73.7	73.7	60	58.9	0	2	45	0.00	30.042 
13:55	74.0	74.0	74.0	58	58.3	1	3	45	0.00	30.042 
14:00	74.4	74.4	74.4	55	57.2	0	3	270	0.00	30.037 
14:05	74.4	74.4	74.4	55	57.2	0	4	270	0.00	30.037 
14:10	74.6	74.6	74.6	57	58.3	0	3	270	0.00	30.037 
14:15	74.7	74.7	74.7	57	58.4	1	3	292	0.00	30.028 
14:20	74.4	74.4	74.4	55	57.2	0	3	135	0.00	30.028 
14:25	74.4	74.4	74.4	56	57.7	0	3	90	0.00	30.028 
14:30	74.4	74.4	74.4	56	57.7	1	3	338	0.00	30.027 
14:35	74.2	74.2	74.2	55	57.0	0	2	338	0.00	30.027 
14:40	74.2	74.2	74.2	58	58.5	0	3	0	0.00	30.027 
14:45	74.2	74.2	74.2	55	57.0	1	3	0	0.00	30.020 
14:50	74.2	74.2	74.2	60	59.4	0	5	158	0.00	30.020 
14:55	74.2	74.2	74.2	60	59.4	0	4	112	0.00	30.020 
15:00	74.2	74.2	74.2	59	58.9	0	2	112	0.00	30.025 
15:05	74.4	74.4	74.4	57	58.2	0	2	112	0.00	30.025 
15:10	74.0	74.0	74.0	58	58.3	0	3	112	0.00	30.025 
15:15	74.0	74.0	74.0	57	57.8	1	5	112	0.00	30.028 
15:20	73.9	73.9	73.9	58	58.2	0	1	112	0.00	30.028 
15:25	73.7	73.7	73.7	59	58.5	0	1	112	0.00	30.028 
15:30	73.3	73.3	73.3	57	57.1	0	2	112	0.00	30.029 
15:35	73.0	73.0	73.0	59	57.8	0	2	112	0.00	30.029 
15:40	73.3	73.3	73.3	59	58.1	0	2	112	0.00	30.029 
15:45	74.0	74.0	74.0	57	57.8	1	3	112	0.00	30.030 
15:50	74.6	74.6	74.6	58	58.8	0	1	112	0.00	30.030 
15:55	74.6	74.6	74.6	56	57.8	0	0	---	0.00	30.030 
16:00	74.6	74.6	74.6	58	58.8	0	1	112	0.00	30.028 
16:05	74.2	74.2	74.2	55	57.0	1	3	112	0.00	30.028 
16:10	74.2	74.2	74.2	56	57.5	0	1	112	0.00	30.028 
16:15	74.2	74.2	74.2	57	58.0	0	2	112	0.00	30.031 
16:20	74.2	74.2	74.2	56	57.5	0	0	---	0.00	30.031 
16:25	74.4	74.4	74.4	57	58.2	0	1	112	0.00	30.031 
16:30	74.9	74.9	74.9	61	60.5	0	1	112	0.00	30.030 
16:35	75.3	75.3	77.7	56	58.5	0	0	---	0.00	30.030 
16:40	75.6	75.6	77.9	54	57.8	0	1	112	0.00	30.030 
16:45	75.6	75.6	77.9	54	57.8	0	1	112	0.00	30.026 
16:50	75.4	75.4	77.8	54	57.6	0	1	112	0.00	30.026 
16:55	75.1	75.1	77.6	53	56.8	0	1	112	0.00	30.026 
17:00	75.3	75.3	77.7	52	56.4	0	2	112	0.00	30.030 
17:05	75.3	75.3	77.7	51	55.9	1	2	112	0.00	30.030 
17:10	75.1	75.1	77.6	52	56.3	1	2	112	0.00	30.030 
17:15	75.1	75.1	77.6	52	56.3	0	2	112	0.00	30.029 
17:20	75.1	75.1	77.6	53	56.8	0	0	---	0.00	30.029 
17:25	75.3	75.3	77.7	53	57.0	0	1	112	0.00	30.029 
17:30	75.8	75.8	78.0	53	57.4	0	1	112	0.00	30.026 
17:35	76.0	76.0	78.1	53	57.6	1	3	112	0.00	30.026 
17:40	76.0	76.0	78.1	51	56.5	1	3	112	0.00	30.026 
17:45	76.0	76.0	78.1	55	58.6	0	2	112	0.00	30.022 
17:50	76.0	76.0	78.1	55	58.6	0	3	112	0.00	30.022 
17:55	75.6	75.6	77.9	54	57.8	0	1	112	0.00	30.022 
18:00	75.4	75.4	77.8	53	57.1	0	2	112	0.00	30.014 
18:05	75.3	75.3	77.7	51	55.9	1	3	112	0.00	30.014 
18:10	75.3	75.3	77.7	52	56.4	0	0	---	0.00	30.014 
18:15	75.1	75.1	77.7	51	55.7	0	3	112	0.00	30.014 
18:20	74.7	74.7	74.7	51	55.4	0	3	112	0.00	30.014 
18:25	74.6	74.6	74.6	54	56.8	0	1	112	0.00	30.014 
18:30	74.4	74.4	74.4	52	55.6	0	1	112	0.00	30.015 
18:35	74.4	74.4	74.4	55	57.2	0	1	338	0.00	30.015 
18:40	74.4	74.4	74.4	53	56.1	0	0	---	0.00	30.015 
18:45	74.2	74.2	74.2	53	56.0	0	0	---	0.00	30.006 
18:50	74.2	74.2	74.2	54	56.5	0	1	338	0.00	30.006 
18:55	74.0	74.0	74.0	53	55.8	0	2	338	0.00	30.006 
19:00	74.0	74.0	74.0	53	55.8	0	0	---	0.00	30.005 
19:05	74.2	74.2	74.2	56	57.5	0	1	338	0.00	30.005 
19:10	74.0	74.0	74.0	53	55.8	0	1	338	0.00	30.005 
19:15	74.0	74.0	74.0	53	55.8	0	2	338	0.00	30.000 
19:20	73.9	73.9	73.9	55	56.7	0	0	---	0.00	30.000 
19:25	73.9	73.9	73.9	54	56.2	0	0	---	0.00	30.000 
19:30	73.7	73.7	73.7	56	57.0	0	0	---	0.00	30.010 
19:35	73.5	73.5	73.5	56	56.8	0	0	---	0.00	30.010 
19:40	73.3	73.3	73.3	56	56.6	0	0	---	0.00	30.010 
19:45	73.2	73.2	73.2	57	57.0	0	0	---	0.00	30.009 
19:50	73.0	73.0	73.0	57	56.9	0	0	---	0.00	30.009 
19:55	73.0	73.0	73.0	58	57.3	0	0	---	0.00	30.009 
20:00	73.0	73.0	73.0	58	57.3	0	0	---	0.00	30.011 
20:05	72.8	72.8	72.8	58	57.1	0	1	338	0.00	30.011 
20:10	72.7	72.7	72.7	59	57.5	0	0	---	0.00	30.011 
20:15	72.5	72.5	72.5	60	57.8	0	4	112	0.00	30.011 
20:20	72.3	72.3	72.3	63	59.0	1	2	112	0.00	30.011 
20:25	72.0	72.0	72.0	66	60.0	1	4	112	0.00	30.011 
20:30	71.6	71.6	71.6	68	60.5	1	3	112	0.00	30.011 
20:35	71.1	71.1	71.1	70	60.8	0	2	112	0.00	30.011 
20:40	70.8	70.8	70.8	71	60.9	0	1	112	0.00	30.011 
20:45	70.3	70.3	70.3	73	61.2	0	2	112	0.00	30.022 
20:50	70.1	70.1	70.1	73	61.0	0	3	112	0.00	30.022 
20:55	69.8	69.8	69.8	75	61.5	0	3	112	0.00	30.022 
21:00	69.4	69.4	69.4	75	61.1	0	3	112	0.00	30.021 
21:05	69.3	69.3	69.3	76	61.4	0	1	112	0.00	30.021 
21:10	68.9	68.9	68.9	76	61.0	0	1	112	0.00	30.021 
21:15	68.8	68.8	68.8	77	61.3	0	0	---	0.00	30.024 
21:20	68.4	68.4	68.4	77	60.9	0	0	---	0.00	30.024 
21:25	68.1	68.1	68.1	78	61.0	0	0	---	0.00	30.024 
21:30	67.8	67.8	67.8	79	61.0	0	2	112	0.00	30.027 
21:35	67.6	67.6	67.6	79	60.8	0	1	112	0.00	30.027 
21:40	67.4	67.4	67.4	79	60.7	0	2	112	0.00	30.027 
21:45	67.3	67.3	67.3	79	60.6	0	1	112	0.00	30.028 
21:50	67.3	67.3	67.3	79	60.6	0	1	112	0.00	30.028 
21:55	67.1	67.1	67.1	79	60.4	0	0	---	0.00	30.028 
22:00	66.8	66.8	66.8	80	60.4	0	0	---	0.00	30.028 
22:05	66.6	66.6	66.6	80	60.2	0	0	---	0.00	30.028 
22:10	66.3	66.3	66.3	80	59.9	0	0	---	0.00	30.028 
22:15	66.1	66.1	66.1	81	60.1	0	0	---	0.00	30.036 
22:20	65.8	65.8	65.8	81	59.8	0	0	---	0.00	30.036 
22:25	65.5	65.5	65.5	82	59.9	0	0	---	0.00	30.036 
22:30	65.3	65.3	65.3	82	59.7	0	0	---	0.00	30.038 
22:35	65.0	65.0	65.0	83	59.7	0	0	---	0.00	30.038 
22:40	64.7	64.7	64.7	83	59.4	0	0	---	0.00	30.038 
22:45	64.5	64.5	64.5	84	59.6	0	0	---	0.00	30.040 
22:50	64.3	64.3	64.3	84	59.4	0	0	---	0.00	30.040 
22:55	64.0	64.0	64.0	84	59.1	0	0	---	0.00	30.040 
23:00	63.9	63.9	63.9	84	59.0	0	0	---	0.00	30.042 
23:05	63.7	63.7	63.7	85	59.1	0	0	---	0.00	30.042 
23:10	63.5	63.5	63.5	85	58.9	0	0	---	0.00	30.042 
23:15	63.4	63.4	63.4	86	59.1	0	0	---	0.00	30.039 
23:20	63.2	63.2	63.2	86	58.9	0	0	---	0.00	30.039 
23:25	63.1	63.1	63.1	87	59.2	0	0	---	0.00	30.039 
23:30	62.9	62.9	62.9	87	59.0	0	0	---	0.00	30.037 
23:35	62.7	62.7	62.7	88	59.1	0	0	---	0.00	30.037 
23:40	62.6	62.6	62.6	88	59.0	0	0	---	0.00	30.037 
23:45	62.4	62.4	62.4	88	58.8	0	0	---	0.00	30.031 
23:50	62.1	62.1	62.1	88	58.5	0	0	---	0.00	30.031 
23:55	62.0	62.0	62.0	88	58.4	0	0	---	0.00	30.031 

CoCoRaHS
IN-AL-39
A2 Web Hosting
Creative Commons License
GoDaddy
search engine by freefind advanced

loaded 2018-11-20 15:09:08 • last modified 2010-11-18 10:43:29
Privacy PolicyDisclaimer
• wx.awcolley.com is powered by PmWiki v.2002016 •
• all content (unless otherwise noted) © 2018 A W Colley